CheckWX is a tool to help pilots better visualize weather data.  It is not intended as a substitute for an official pre-flight weather briefing.

05:52:42 UTC

KSFO TAF
San Francisco International Airport
San Francisco, California, USA
KSFO 312330Z 0100/0206 28014KT P6SM FEW012 SCT035 BKN180 FM010300 27012KT P6SM SCT012 BKN180 FM010600 28009KT P6SM BKN015 BKN180 FM011700 30008KT P6SM SCT015 SCT180 FM012200 28018KT P6SM FEW015 SCT200 FM020300 28013KT P6SM FEW020 FEW200

Jun-1@
00:00 UTC

Jun-1 @ 00:00 UTC

Jun-1@
03:00 UTC

Jun-1 @ 03:00 UTC

TAF KSFO 312330Z 0100/0206 28014KT P6SM FEW012 SCT035 BKN180

Expired

Wind
  • 280° at 14 KTS
Cloud Levels
  • Few at 1,200' AGL
  • Scattered at 3,500' AGL
  • Broken at 18,000' AGL

Jun-1@
03:00 UTC

Jun-1 @ 03:00 UTC

Jun-1@
06:00 UTC

Jun-1 @ 06:00 UTC

FM010300 27012KT P6SM SCT012 BKN180

Expired

Wind
  • 270° at 12 KTS
Cloud Levels
  • Scattered at 1,200' AGL
  • Broken at 18,000' AGL

Jun-1@
06:00 UTC

Jun-1 @ 06:00 UTC

Jun-1@
17:00 UTC

Jun-1 @ 17:00 UTC

FM010600 28009KT P6SM BKN015 BKN180

Expired

Wind
  • 280° at 9 KTS
Cloud Levels
  • Broken at 1,500' AGL
  • Broken at 18,000' AGL

Jun-1@
17:00 UTC

Jun-1 @ 17:00 UTC

Jun-1@
22:00 UTC

Jun-1 @ 22:00 UTC

FM011700 30008KT P6SM SCT015 SCT180

Expired

Wind
  • 300° at 8 KTS
Cloud Levels
  • Scattered at 1,500' AGL
  • Scattered at 18,000' AGL

Jun-1@
22:00 UTC

Jun-1 @ 22:00 UTC

Jun-2@
03:00 UTC

Jun-2 @ 03:00 UTC

FM012200 28018KT P6SM FEW015 SCT200

Expired

Wind
  • 280° at 18 KTS
Cloud Levels
  • Few at 1,500' AGL
  • Scattered at 20,000' AGL

Jun-2@
03:00 UTC

Jun-2 @ 03:00 UTC

Jun-2@
06:00 UTC

Jun-2 @ 06:00 UTC

FM020300 28013KT P6SM FEW020 FEW200

From

From Standard forecast or significant change

Wind
  • 280° at 13 KTS
Cloud Levels
  • Few at 2,000' AGL
  • Few at 20,000' AGL